sensor_id;sensor_type;location;lat;lon;timestamp;temperature;humidity
66257;DHT22;53049;43.446;3.698;2023-08-21T00:00:05;26.40;99.90
66257;DHT22;53049;43.446;3.698;2023-08-21T00:02:31;26.30;99.90
66257;DHT22;53049;43.446;3.698;2023-08-21T00:04:57;26.30;99.90
66257;DHT22;53049;43.446;3.698;2023-08-21T00:07:23;26.30;99.90
66257;DHT22;53049;43.446;3.698;2023-08-21T00:09:48;26.20;99.90
66257;DHT22;53049;43.446;3.698;2023-08-21T00:12:15;26.30;99.90
66257;DHT22;53049;43.446;3.698;2023-08-21T00:14:41;26.20;99.90
66257;DHT22;53049;43.446;3.698;2023-08-21T00:17:07;26.20;99.90
66257;DHT22;53049;43.446;3.698;2023-08-21T00:19:33;26.30;99.90
66257;DHT22;53049;43.446;3.698;2023-08-21T00:22:00;26.20;99.90
66257;DHT22;53049;43.446;3.698;2023-08-21T00:24:26;26.10;99.90
66257;DHT22;53049;43.446;3.698;2023-08-21T00:26:51;26.10;99.90
66257;DHT22;53049;43.446;3.698;2023-08-21T00:29:17;26.20;99.90
66257;DHT22;53049;43.446;3.698;2023-08-21T00:31:43;26.10;99.90
66257;DHT22;53049;43.446;3.698;2023-08-21T00:34:08;25.90;99.90
66257;DHT22;53049;43.446;3.698;2023-08-21T00:36:34;25.80;99.90
66257;DHT22;53049;43.446;3.698;2023-08-21T00:39:00;25.80;99.90
66257;DHT22;53049;43.446;3.698;2023-08-21T00:41:25;25.70;99.90
66257;DHT22;53049;43.446;3.698;2023-08-21T00:43:51;25.70;99.90
66257;DHT22;53049;43.446;3.698;2023-08-21T00:46:17;25.70;99.90
66257;DHT22;53049;43.446;3.698;2023-08-21T00:48:43;25.70;99.90
66257;DHT22;53049;43.446;3.698;2023-08-21T00:51:10;25.70;99.90
66257;DHT22;53049;43.446;3.698;2023-08-21T00:53:36;25.70;99.90
66257;DHT22;53049;43.446;3.698;2023-08-21T00:56:02;25.60;99.90
66257;DHT22;53049;43.446;3.698;2023-08-21T00:58:28;25.60;99.90
66257;DHT22;53049;43.446;3.698;2023-08-21T01:00:54;25.60;99.90
66257;DHT22;53049;43.446;3.698;2023-08-21T01:03:20;25.60;99.90
66257;DHT22;53049;43.446;3.698;2023-08-21T01:05:46;25.60;99.90
66257;DHT22;53049;43.446;3.698;2023-08-21T01:16:31;25.50;99.90
66257;DHT22;53049;43.446;3.698;2023-08-21T01:18:58;25.50;99.90
66257;DHT22;53049;43.446;3.698;2023-08-21T01:21:25;25.40;99.90
66257;DHT22;53049;43.446;3.698;2023-08-21T01:23:51;25.30;99.90
66257;DHT22;53049;43.446;3.698;2023-08-21T01:26:16;25.20;99.90
66257;DHT22;53049;43.446;3.698;2023-08-21T01:28:42;25.10;99.90
66257;DHT22;53049;43.446;3.698;2023-08-21T01:31:21;25.10;99.90
66257;DHT22;53049;43.446;3.698;2023-08-21T01:33:52;25.10;99.90
66257;DHT22;53049;43.446;3.698;2023-08-21T01:36:20;25.00;99.90
66257;DHT22;53049;43.446;3.698;2023-08-21T01:38:45;24.90;99.90
66257;DHT22;53049;43.446;3.698;2023-08-21T01:41:12;24.90;99.90
66257;DHT22;53049;43.446;3.698;2023-08-21T01:43:37;24.90;99.90
66257;DHT22;53049;43.446;3.698;2023-08-21T01:46:03;24.80;99.90
66257;DHT22;53049;43.446;3.698;2023-08-21T01:48:29;24.80;99.90
66257;DHT22;53049;43.446;3.698;2023-08-21T01:50:55;24.80;99.90
66257;DHT22;53049;43.446;3.698;2023-08-21T01:53:20;24.80;99.90
66257;DHT22;53049;43.446;3.698;2023-08-21T01:55:46;24.70;99.90
66257;DHT22;53049;43.446;3.698;2023-08-21T01:58:11;24.70;99.90
66257;DHT22;53049;43.446;3.698;2023-08-21T02:00:37;24.70;99.90
66257;DHT22;53049;43.446;3.698;2023-08-21T02:03:03;24.70;99.90
66257;DHT22;53049;43.446;3.698;2023-08-21T02:05:29;24.70;99.90
66257;DHT22;53049;43.446;3.698;2023-08-21T02:07:54;24.60;99.90
66257;DHT22;53049;43.446;3.698;2023-08-21T02:10:20;24.60;99.90
66257;DHT22;53049;43.446;3.698;2023-08-21T02:12:45;24.50;99.90
66257;DHT22;53049;43.446;3.698;2023-08-21T02:15:11;24.50;99.90
66257;DHT22;53049;43.446;3.698;2023-08-21T02:17:37;24.50;99.90
66257;DHT22;53049;43.446;3.698;2023-08-21T02:20:02;24.50;99.90
66257;DHT22;53049;43.446;3.698;2023-08-21T02:22:28;24.50;99.90
66257;DHT22;53049;43.446;3.698;2023-08-21T02:24:54;24.50;99.90
66257;DHT22;53049;43.446;3.698;2023-08-21T02:27:19;24.50;99.90
66257;DHT22;53049;43.446;3.698;2023-08-21T02:29:45;24.50;99.90
66257;DHT22;53049;43.446;3.698;2023-08-21T02:32:11;24.50;99.90
66257;DHT22;53049;43.446;3.698;2023-08-21T02:34:36;24.50;99.90
66257;DHT22;53049;43.446;3.698;2023-08-21T02:37:02;24.50;99.90
66257;DHT22;53049;43.446;3.698;2023-08-21T02:39:28;24.40;99.90
66257;DHT22;53049;43.446;3.698;2023-08-21T02:41:54;24.40;99.90
66257;DHT22;53049;43.446;3.698;2023-08-21T02:44:19;24.40;99.90
66257;DHT22;53049;43.446;3.698;2023-08-21T02:46:45;24.30;99.90
66257;DHT22;53049;43.446;3.698;2023-08-21T02:49:10;24.30;99.90
66257;DHT22;53049;43.446;3.698;2023-08-21T02:51:36;24.30;99.90
66257;DHT22;53049;43.446;3.698;2023-08-21T02:54:02;24.30;99.90
66257;DHT22;53049;43.446;3.698;2023-08-21T02:56:28;24.30;99.90
66257;DHT22;53049;43.446;3.698;2023-08-21T02:58:53;24.30;99.90
66257;DHT22;53049;43.446;3.698;2023-08-21T03:01:19;24.20;99.90
66257;DHT22;53049;43.446;3.698;2023-08-21T03:03:44;24.20;99.90
66257;DHT22;53049;43.446;3.698;2023-08-21T03:06:10;24.20;99.90
66257;DHT22;53049;43.446;3.698;2023-08-21T03:08:35;24.20;99.90
66257;DHT22;53049;43.446;3.698;2023-08-21T03:11:01;24.20;99.90
66257;DHT22;53049;43.446;3.698;2023-08-21T03:13:27;24.20;99.90
66257;DHT22;53049;43.446;3.698;2023-08-21T03:15:52;24.20;99.90
66257;DHT22;53049;43.446;3.698;2023-08-21T03:18:18;24.10;99.90
66257;DHT22;53049;43.446;3.698;2023-08-21T03:20:45;24.10;99.90
66257;DHT22;53049;43.446;3.698;2023-08-21T03:23:11;24.20;99.90
66257;DHT22;53049;43.446;3.698;2023-08-21T03:25:37;24.10;99.90
66257;DHT22;53049;43.446;3.698;2023-08-21T03:28:03;24.20;99.90
66257;DHT22;53049;43.446;3.698;2023-08-21T03:30:29;24.20;99.90
66257;DHT22;53049;43.446;3.698;2023-08-21T03:32:54;24.20;99.90
66257;DHT22;53049;43.446;3.698;2023-08-21T03:35:20;24.20;99.90
66257;DHT22;53049;43.446;3.698;2023-08-21T03:37:45;24.10;99.90
66257;DHT22;53049;43.446;3.698;2023-08-21T03:40:11;24.00;99.90
66257;DHT22;53049;43.446;3.698;2023-08-21T03:42:37;24.00;99.90
66257;DHT22;53049;43.446;3.698;2023-08-21T03:45:03;24.00;99.90
66257;DHT22;53049;43.446;3.698;2023-08-21T03:47:32;24.00;99.90
66257;DHT22;53049;43.446;3.698;2023-08-21T03:49:57;23.90;99.90
66257;DHT22;53049;43.446;3.698;2023-08-21T03:52:23;23.80;99.90
66257;DHT22;53049;43.446;3.698;2023-08-21T03:54:49;23.80;99.90
66257;DHT22;53049;43.446;3.698;2023-08-21T03:57:14;23.80;99.90
66257;DHT22;53049;43.446;3.698;2023-08-21T03:59:40;23.90;99.90
66257;DHT22;53049;43.446;3.698;2023-08-21T04:02:06;23.80;99.90
66257;DHT22;53049;43.446;3.698;2023-08-21T04:04:32;23.80;99.90
66257;DHT22;53049;43.446;3.698;2023-08-21T04:06:57;23.80;99.90
66257;DHT22;53049;43.446;3.698;2023-08-21T04:09:23;23.80;99.90
66257;DHT22;53049;43.446;3.698;2023-08-21T04:11:48;23.80;99.90
66257;DHT22;53049;43.446;3.698;2023-08-21T04:14:14;23.80;99.90
66257;DHT22;53049;43.446;3.698;2023-08-21T04:16:40;23.80;99.90
66257;DHT22;53049;43.446;3.698;2023-08-21T04:19:06;23.80;99.90
66257;DHT22;53049;43.446;3.698;2023-08-21T04:21:31;23.80;99.90
66257;DHT22;53049;43.446;3.698;2023-08-21T04:23:57;23.80;99.90
66257;DHT22;53049;43.446;3.698;2023-08-21T04:26:22;23.80;99.90
66257;DHT22;53049;43.446;3.698;2023-08-21T04:28:48;23.80;99.90
66257;DHT22;53049;43.446;3.698;2023-08-21T04:31:14;23.90;99.90
66257;DHT22;53049;43.446;3.698;2023-08-21T04:33:39;23.90;99.90
66257;DHT22;53049;43.446;3.698;2023-08-21T04:36:05;23.90;99.90
66257;DHT22;53049;43.446;3.698;2023-08-21T04:38:31;23.90;99.90
66257;DHT22;53049;43.446;3.698;2023-08-21T04:41:05;23.80;99.90
66257;DHT22;53049;43.446;3.698;2023-08-21T04:43:30;23.80;99.90
66257;DHT22;53049;43.446;3.698;2023-08-21T04:45:56;23.70;99.90
66257;DHT22;53049;43.446;3.698;2023-08-21T04:48:21;23.70;99.90
66257;DHT22;53049;43.446;3.698;2023-08-21T04:50:47;23.70;99.90
66257;DHT22;53049;43.446;3.698;2023-08-21T04:53:13;23.60;99.90
66257;DHT22;53049;43.446;3.698;2023-08-21T04:55:42;23.60;99.90
66257;DHT22;53049;43.446;3.698;2023-08-21T04:58:09;23.60;99.90
66257;DHT22;53049;43.446;3.698;2023-08-21T05:00:34;23.60;99.90
66257;DHT22;53049;43.446;3.698;2023-08-21T05:03:00;23.70;99.90
66257;DHT22;53049;43.446;3.698;2023-08-21T05:05:26;23.60;99.90
66257;DHT22;53049;43.446;3.698;2023-08-21T05:07:53;23.60;99.90
66257;DHT22;53049;43.446;3.698;2023-08-21T05:10:19;23.60;99.90
66257;DHT22;53049;43.446;3.698;2023-08-21T05:12:45;23.60;99.90
66257;DHT22;53049;43.446;3.698;2023-08-21T05:15:11;23.60;99.90
66257;DHT22;53049;43.446;3.698;2023-08-21T05:17:36;23.50;99.90
66257;DHT22;53049;43.446;3.698;2023-08-21T05:20:03;23.60;99.90
66257;DHT22;53049;43.446;3.698;2023-08-21T05:22:29;23.60;99.90
66257;DHT22;53049;43.446;3.698;2023-08-21T05:24:55;23.70;99.90
66257;DHT22;53049;43.446;3.698;2023-08-21T05:27:21;23.60;99.90
66257;DHT22;53049;43.446;3.698;2023-08-21T05:29:46;23.70;99.90
66257;DHT22;53049;43.446;3.698;2023-08-21T05:32:12;23.80;99.90
66257;DHT22;53049;43.446;3.698;2023-08-21T05:34:38;23.80;99.90
66257;DHT22;53049;43.446;3.698;2023-08-21T05:37:03;23.80;99.90
66257;DHT22;53049;43.446;3.698;2023-08-21T05:39:29;23.70;99.90
66257;DHT22;53049;43.446;3.698;2023-08-21T05:41:55;23.70;99.90
66257;DHT22;53049;43.446;3.698;2023-08-21T05:44:21;23.80;99.90
66257;DHT22;53049;43.446;3.698;2023-08-21T05:46:48;23.80;99.90
66257;DHT22;53049;43.446;3.698;2023-08-21T05:49:14;23.80;99.90
66257;DHT22;53049;43.446;3.698;2023-08-21T05:51:39;23.80;99.90
66257;DHT22;53049;43.446;3.698;2023-08-21T05:54:05;23.80;99.90
66257;DHT22;53049;43.446;3.698;2023-08-21T05:56:31;23.80;99.90
66257;DHT22;53049;43.446;3.698;2023-08-21T05:58:56;23.90;99.90
66257;DHT22;53049;43.446;3.698;2023-08-21T06:01:22;24.00;99.90
66257;DHT22;53049;43.446;3.698;2023-08-21T06:03:47;24.00;99.90
66257;DHT22;53049;43.446;3.698;2023-08-21T06:06:13;24.10;99.90
66257;DHT22;53049;43.446;3.698;2023-08-21T06:08:39;24.10;99.90
66257;DHT22;53049;43.446;3.698;2023-08-21T06:11:04;24.10;99.90
66257;DHT22;53049;43.446;3.698;2023-08-21T06:13:30;24.20;99.90
66257;DHT22;53049;43.446;3.698;2023-08-21T06:15:56;24.20;99.90
66257;DHT22;53049;43.446;3.698;2023-08-21T06:18:21;24.40;99.90
66257;DHT22;53049;43.446;3.698;2023-08-21T06:20:48;24.50;99.90
66257;DHT22;53049;43.446;3.698;2023-08-21T06:23:14;24.50;99.90
66257;DHT22;53049;43.446;3.698;2023-08-21T06:25:39;24.50;99.90
66257;DHT22;53049;43.446;3.698;2023-08-21T06:28:09;24.50;99.90
66257;DHT22;53049;43.446;3.698;2023-08-21T06:30:35;24.60;99.90
66257;DHT22;53049;43.446;3.698;2023-08-21T06:33:00;24.80;99.90
66257;DHT22;53049;43.446;3.698;2023-08-21T06:35:26;24.80;99.90
66257;DHT22;53049;43.446;3.698;2023-08-21T06:37:52;24.80;99.90
66257;DHT22;53049;43.446;3.698;2023-08-21T06:40:19;24.80;99.90
66257;DHT22;53049;43.446;3.698;2023-08-21T06:42:45;24.90;99.90
66257;DHT22;53049;43.446;3.698;2023-08-21T06:45:11;24.90;99.90
66257;DHT22;53049;43.446;3.698;2023-08-21T06:47:36;24.90;99.90
66257;DHT22;53049;43.446;3.698;2023-08-21T06:50:02;25.10;99.90
66257;DHT22;53049;43.446;3.698;2023-08-21T06:52:28;25.20;99.90
66257;DHT22;53049;43.446;3.698;2023-08-21T06:54:53;25.40;99.90
66257;DHT22;53049;43.446;3.698;2023-08-21T06:57:19;25.40;99.90
66257;DHT22;53049;43.446;3.698;2023-08-21T06:59:44;25.40;99.90
66257;DHT22;53049;43.446;3.698;2023-08-21T07:02:10;25.40;99.90
66257;DHT22;53049;43.446;3.698;2023-08-21T07:04:36;25.40;99.90
66257;DHT22;53049;43.446;3.698;2023-08-21T07:07:02;25.40;99.90
66257;DHT22;53049;43.446;3.698;2023-08-21T07:09:27;25.40;99.90
66257;DHT22;53049;43.446;3.698;2023-08-21T07:11:53;25.50;99.90
66257;DHT22;53049;43.446;3.698;2023-08-21T07:14:19;25.50;99.90
66257;DHT22;53049;43.446;3.698;2023-08-21T07:16:45;25.70;99.90
66257;DHT22;53049;43.446;3.698;2023-08-21T07:19:10;25.80;99.90
66257;DHT22;53049;43.446;3.698;2023-08-21T07:21:36;25.90;99.90
66257;DHT22;53049;43.446;3.698;2023-08-21T07:24:03;26.00;99.90
66257;DHT22;53049;43.446;3.698;2023-08-21T07:26:29;26.10;99.90
66257;DHT22;53049;43.446;3.698;2023-08-21T07:28:55;26.20;99.90
66257;DHT22;53049;43.446;3.698;2023-08-21T07:31:21;26.30;99.90
66257;DHT22;53049;43.446;3.698;2023-08-21T07:33:47;26.30;99.90
66257;DHT22;53049;43.446;3.698;2023-08-21T07:36:12;26.30;99.90
66257;DHT22;53049;43.446;3.698;2023-08-21T07:38:43;26.30;99.90
66257;DHT22;53049;43.446;3.698;2023-08-21T07:41:10;26.40;99.90
66257;DHT22;53049;43.446;3.698;2023-08-21T07:43:37;26.50;99.90
66257;DHT22;53049;43.446;3.698;2023-08-21T07:46:05;26.50;99.90
66257;DHT22;53049;43.446;3.698;2023-08-21T07:48:31;26.60;99.90
66257;DHT22;53049;43.446;3.698;2023-08-21T07:50:57;26.70;99.90
66257;DHT22;53049;43.446;3.698;2023-08-21T07:53:24;26.90;99.90
66257;DHT22;53049;43.446;3.698;2023-08-21T07:55:50;26.90;99.90
66257;DHT22;53049;43.446;3.698;2023-08-21T07:58:15;27.00;99.90
66257;DHT22;53049;43.446;3.698;2023-08-21T08:00:41;27.10;99.90
66257;DHT22;53049;43.446;3.698;2023-08-21T08:03:10;27.20;99.90
66257;DHT22;53049;43.446;3.698;2023-08-21T08:05:36;27.30;99.90
66257;DHT22;53049;43.446;3.698;2023-08-21T08:08:02;27.40;99.90
66257;DHT22;53049;43.446;3.698;2023-08-21T08:10:28;28.40;99.90
66257;DHT22;53049;43.446;3.698;2023-08-21T08:12:54;30.00;99.90
66257;DHT22;53049;43.446;3.698;2023-08-21T08:15:20;31.40;99.90
66257;DHT22;53049;43.446;3.698;2023-08-21T08:17:46;33.70;99.90
66257;DHT22;53049;43.446;3.698;2023-08-21T08:20:13;36.70;99.90
66257;DHT22;53049;43.446;3.698;2023-08-21T08:22:39;39.10;99.90
66257;DHT22;53049;43.446;3.698;2023-08-21T08:25:06;36.50;99.90
66257;DHT22;53049;43.446;3.698;2023-08-21T08:27:32;38.90;99.90
66257;DHT22;53049;43.446;3.698;2023-08-21T08:29:58;41.70;99.90
66257;DHT22;53049;43.446;3.698;2023-08-21T08:32:23;42.90;99.90
66257;DHT22;53049;43.446;3.698;2023-08-21T08:34:49;43.40;99.90
66257;DHT22;53049;43.446;3.698;2023-08-21T08:37:14;39.30;99.90
66257;DHT22;53049;43.446;3.698;2023-08-21T08:39:40;36.20;99.90
66257;DHT22;53049;43.446;3.698;2023-08-21T08:42:06;34.50;99.90
66257;DHT22;53049;43.446;3.698;2023-08-21T08:44:35;33.70;99.90
66257;DHT22;53049;43.446;3.698;2023-08-21T08:47:03;32.80;99.90
66257;DHT22;53049;43.446;3.698;2023-08-21T08:49:30;32.30;99.90
66257;DHT22;53049;43.446;3.698;2023-08-21T08:51:57;32.10;99.90
66257;DHT22;53049;43.446;3.698;2023-08-21T08:54:24;32.10;99.90
66257;DHT22;53049;43.446;3.698;2023-08-21T08:56:51;32.40;99.90
66257;DHT22;53049;43.446;3.698;2023-08-21T08:59:17;32.70;99.90
66257;DHT22;53049;43.446;3.698;2023-08-21T09:01:43;33.20;99.90
66257;DHT22;53049;43.446;3.698;2023-08-21T09:04:09;33.60;99.90
66257;DHT22;53049;43.446;3.698;2023-08-21T09:06:35;33.60;99.90
66257;DHT22;53049;43.446;3.698;2023-08-21T09:09:01;33.80;99.90
66257;DHT22;53049;43.446;3.698;2023-08-21T09:11:27;33.70;99.90
66257;DHT22;53049;43.446;3.698;2023-08-21T09:13:54;32.90;99.90
66257;DHT22;53049;43.446;3.698;2023-08-21T09:16:21;33.30;99.90
66257;DHT22;53049;43.446;3.698;2023-08-21T09:21:19;34.20;99.90
66257;DHT22;53049;43.446;3.698;2023-08-21T09:23:46;33.90;99.90
66257;DHT22;53049;43.446;3.698;2023-08-21T09:26:19;34.00;99.90
66257;DHT22;53049;43.446;3.698;2023-08-21T09:28:46;34.30;99.90
66257;DHT22;53049;43.446;3.698;2023-08-21T09:31:13;34.40;99.90
66257;DHT22;53049;43.446;3.698;2023-08-21T09:33:38;34.50;99.90
66257;DHT22;53049;43.446;3.698;2023-08-21T09:36:04;34.80;99.90
66257;DHT22;53049;43.446;3.698;2023-08-21T09:38:30;34.60;99.90
66257;DHT22;53049;43.446;3.698;2023-08-21T09:40:56;34.60;99.90
66257;DHT22;53049;43.446;3.698;2023-08-21T09:43:25;34.00;99.90
66257;DHT22;53049;43.446;3.698;2023-08-21T09:45:55;34.80;99.90
66257;DHT22;53049;43.446;3.698;2023-08-21T09:48:25;35.10;99.90
66257;DHT22;53049;43.446;3.698;2023-08-21T09:50:55;35.30;99.90
66257;DHT22;53049;43.446;3.698;2023-08-21T09:53:22;35.40;99.90
66257;DHT22;53049;43.446;3.698;2023-08-21T09:55:52;35.50;99.90
66257;DHT22;53049;43.446;3.698;2023-08-21T09:58:19;35.90;99.90
66257;DHT22;53049;43.446;3.698;2023-08-21T10:00:45;36.30;99.90
66257;DHT22;53049;43.446;3.698;2023-08-21T10:03:18;36.30;99.90
66257;DHT22;53049;43.446;3.698;2023-08-21T10:05:51;35.90;99.90
66257;DHT22;53049;43.446;3.698;2023-08-21T10:08:24;35.80;99.90
66257;DHT22;53049;43.446;3.698;2023-08-21T10:10:51;35.80;99.90
66257;DHT22;53049;43.446;3.698;2023-08-21T10:13:17;36.10;99.90
66257;DHT22;53049;43.446;3.698;2023-08-21T10:15:44;35.70;99.90
66257;DHT22;53049;43.446;3.698;2023-08-21T10:20:45;35.70;99.90
66257;DHT22;53049;43.446;3.698;2023-08-21T10:25:58;35.90;99.90
66257;DHT22;53049;43.446;3.698;2023-08-21T10:28:24;35.50;99.90
66257;DHT22;53049;43.446;3.698;2023-08-21T10:30:50;35.10;99.90
66257;DHT22;53049;43.446;3.698;2023-08-21T10:33:17;34.80;99.90
66257;DHT22;53049;43.446;3.698;2023-08-21T10:35:45;34.80;99.90
66257;DHT22;53049;43.446;3.698;2023-08-21T10:38:17;34.60;99.90
66257;DHT22;53049;43.446;3.698;2023-08-21T10:41:03;34.50;99.90
66257;DHT22;53049;43.446;3.698;2023-08-21T10:43:44;34.50;99.90
66257;DHT22;53049;43.446;3.698;2023-08-21T10:46:11;34.50;99.90
66257;DHT22;53049;43.446;3.698;2023-08-21T10:48:37;34.40;99.90
66257;DHT22;53049;43.446;3.698;2023-08-21T10:51:06;34.50;99.90
66257;DHT22;53049;43.446;3.698;2023-08-21T10:53:34;34.50;99.90
66257;DHT22;53049;43.446;3.698;2023-08-21T10:56:04;34.50;99.90
66257;DHT22;53049;43.446;3.698;2023-08-21T10:58:45;34.50;99.90
66257;DHT22;53049;43.446;3.698;2023-08-21T11:01:15;34.50;99.90
66257;DHT22;53049;43.446;3.698;2023-08-21T11:03:41;34.50;99.90
66257;DHT22;53049;43.446;3.698;2023-08-21T11:06:10;34.50;99.90
66257;DHT22;53049;43.446;3.698;2023-08-21T11:08:36;34.50;99.90
66257;DHT22;53049;43.446;3.698;2023-08-21T11:11:04;34.60;99.90
66257;DHT22;53049;43.446;3.698;2023-08-21T11:13:31;34.50;99.90
66257;DHT22;53049;43.446;3.698;2023-08-21T11:16:04;34.50;99.90
66257;DHT22;53049;43.446;3.698;2023-08-21T11:18:35;34.50;99.90
66257;DHT22;53049;43.446;3.698;2023-08-21T11:21:05;34.50;99.90
66257;DHT22;53049;43.446;3.698;2023-08-21T11:23:39;34.20;99.90
66257;DHT22;53049;43.446;3.698;2023-08-21T11:26:06;34.00;99.90
66257;DHT22;53049;43.446;3.698;2023-08-21T11:28:32;33.80;99.90
66257;DHT22;53049;43.446;3.698;2023-08-21T11:30:59;33.80;99.90
66257;DHT22;53049;43.446;3.698;2023-08-21T11:33:26;33.70;99.90
66257;DHT22;53049;43.446;3.698;2023-08-21T11:35:52;33.70;99.90
66257;DHT22;53049;43.446;3.698;2023-08-21T11:38:24;33.70;99.90
66257;DHT22;53049;43.446;3.698;2023-08-21T11:40:58;33.50;99.90
66257;DHT22;53049;43.446;3.698;2023-08-21T11:43:41;33.50;99.90
66257;DHT22;53049;43.446;3.698;2023-08-21T11:46:09;33.50;99.90
66257;DHT22;53049;43.446;3.698;2023-08-21T11:48:40;33.50;99.90
66257;DHT22;53049;43.446;3.698;2023-08-21T11:51:07;33.50;99.90
66257;DHT22;53049;43.446;3.698;2023-08-21T11:56:00;33.40;99.90
66257;DHT22;53049;43.446;3.698;2023-08-21T11:58:28;33.40;99.90
66257;DHT22;53049;43.446;3.698;2023-08-21T12:00:54;33.40;99.90
66257;DHT22;53049;43.446;3.698;2023-08-21T12:03:26;33.50;99.90
66257;DHT22;53049;43.446;3.698;2023-08-21T12:05:52;33.30;99.90
66257;DHT22;53049;43.446;3.698;2023-08-21T12:08:17;33.30;99.90
66257;DHT22;53049;43.446;3.698;2023-08-21T12:10:43;33.30;99.90
66257;DHT22;53049;43.446;3.698;2023-08-21T12:13:09;33.30;99.90
66257;DHT22;53049;43.446;3.698;2023-08-21T12:15:34;33.30;99.90
66257;DHT22;53049;43.446;3.698;2023-08-21T12:18:00;33.30;99.90
66257;DHT22;53049;43.446;3.698;2023-08-21T12:20:25;33.30;99.90
66257;DHT22;53049;43.446;3.698;2023-08-21T12:22:51;33.40;99.90
66257;DHT22;53049;43.446;3.698;2023-08-21T12:25:17;33.40;99.90
66257;DHT22;53049;43.446;3.698;2023-08-21T12:27:43;33.30;99.90
66257;DHT22;53049;43.446;3.698;2023-08-21T12:30:10;33.30;99.90
66257;DHT22;53049;43.446;3.698;2023-08-21T12:32:36;33.30;99.90
66257;DHT22;53049;43.446;3.698;2023-08-21T12:35:02;33.40;99.90
66257;DHT22;53049;43.446;3.698;2023-08-21T12:37:29;33.50;99.90
66257;DHT22;53049;43.446;3.698;2023-08-21T12:39:55;33.40;99.90
66257;DHT22;53049;43.446;3.698;2023-08-21T12:42:20;33.40;99.90
66257;DHT22;53049;43.446;3.698;2023-08-21T12:44:46;33.50;99.90
66257;DHT22;53049;43.446;3.698;2023-08-21T12:47:12;33.50;99.90
66257;DHT22;53049;43.446;3.698;2023-08-21T12:49:37;33.50;99.90
66257;DHT22;53049;43.446;3.698;2023-08-21T12:52:03;33.50;99.90
66257;DHT22;53049;43.446;3.698;2023-08-21T12:54:31;33.40;99.90
66257;DHT22;53049;43.446;3.698;2023-08-21T12:56:56;33.40;99.90
66257;DHT22;53049;43.446;3.698;2023-08-21T12:59:22;33.40;99.90
66257;DHT22;53049;43.446;3.698;2023-08-21T13:01:48;33.50;99.90
66257;DHT22;53049;43.446;3.698;2023-08-21T13:04:13;33.50;99.90
66257;DHT22;53049;43.446;3.698;2023-08-21T13:06:39;33.50;99.90
66257;DHT22;53049;43.446;3.698;2023-08-21T13:09:04;33.50;99.90
66257;DHT22;53049;43.446;3.698;2023-08-21T13:11:31;33.50;99.90
66257;DHT22;53049;43.446;3.698;2023-08-21T13:13:56;33.50;99.90
66257;DHT22;53049;43.446;3.698;2023-08-21T13:16:22;33.50;99.90
66257;DHT22;53049;43.446;3.698;2023-08-21T13:18:48;33.50;99.90
66257;DHT22;53049;43.446;3.698;2023-08-21T13:21:14;33.30;99.90
66257;DHT22;53049;43.446;3.698;2023-08-21T13:23:39;33.40;99.90
66257;DHT22;53049;43.446;3.698;2023-08-21T13:26:05;33.40;99.90
66257;DHT22;53049;43.446;3.698;2023-08-21T13:28:30;33.30;99.90
66257;DHT22;53049;43.446;3.698;2023-08-21T13:30:56;33.50;99.90
66257;DHT22;53049;43.446;3.698;2023-08-21T13:33:23;33.50;99.90
66257;DHT22;53049;43.446;3.698;2023-08-21T13:35:49;33.50;99.90
66257;DHT22;53049;43.446;3.698;2023-08-21T13:38:14;33.40;99.90
66257;DHT22;53049;43.446;3.698;2023-08-21T13:40:40;33.30;99.90
66257;DHT22;53049;43.446;3.698;2023-08-21T13:43:06;33.30;99.90
66257;DHT22;53049;43.446;3.698;2023-08-21T13:45:33;33.30;99.90
66257;DHT22;53049;43.446;3.698;2023-08-21T13:47:59;33.20;99.90
66257;DHT22;53049;43.446;3.698;2023-08-21T13:50:24;33.20;99.90
66257;DHT22;53049;43.446;3.698;2023-08-21T13:52:50;33.10;99.90
66257;DHT22;53049;43.446;3.698;2023-08-21T13:55:16;33.20;99.90
66257;DHT22;53049;43.446;3.698;2023-08-21T13:57:42;33.10;99.90
66257;DHT22;53049;43.446;3.698;2023-08-21T14:00:10;33.10;99.90
66257;DHT22;53049;43.446;3.698;2023-08-21T14:02:39;33.10;99.90
66257;DHT22;53049;43.446;3.698;2023-08-21T14:05:07;33.00;99.90
66257;DHT22;53049;43.446;3.698;2023-08-21T14:07:34;33.00;99.90
66257;DHT22;53049;43.446;3.698;2023-08-21T14:10:00;33.00;99.90
66257;DHT22;53049;43.446;3.698;2023-08-21T14:12:28;33.00;99.90
66257;DHT22;53049;43.446;3.698;2023-08-21T14:14:54;33.10;99.90
66257;DHT22;53049;43.446;3.698;2023-08-21T14:17:20;33.00;99.90
66257;DHT22;53049;43.446;3.698;2023-08-21T14:19:46;33.00;99.90
66257;DHT22;53049;43.446;3.698;2023-08-21T14:22:11;33.00;99.90
66257;DHT22;53049;43.446;3.698;2023-08-21T14:24:37;33.00;99.90
66257;DHT22;53049;43.446;3.698;2023-08-21T14:27:03;32.90;99.90
66257;DHT22;53049;43.446;3.698;2023-08-21T14:29:28;32.90;99.90
66257;DHT22;53049;43.446;3.698;2023-08-21T14:31:54;32.90;99.90
66257;DHT22;53049;43.446;3.698;2023-08-21T14:34:20;32.80;99.90
66257;DHT22;53049;43.446;3.698;2023-08-21T14:36:47;32.80;99.90
66257;DHT22;53049;43.446;3.698;2023-08-21T14:39:13;32.80;99.90
66257;DHT22;53049;43.446;3.698;2023-08-21T14:41:41;32.70;99.90
66257;DHT22;53049;43.446;3.698;2023-08-21T14:44:07;32.80;99.90
66257;DHT22;53049;43.446;3.698;2023-08-21T14:46:33;32.80;99.90
66257;DHT22;53049;43.446;3.698;2023-08-21T14:48:59;32.80;99.90
66257;DHT22;53049;43.446;3.698;2023-08-21T14:51:24;32.70;99.90
66257;DHT22;53049;43.446;3.698;2023-08-21T14:53:50;32.70;99.90
66257;DHT22;53049;43.446;3.698;2023-08-21T14:56:16;32.60;99.90
66257;DHT22;53049;43.446;3.698;2023-08-21T14:58:41;32.60;99.90
66257;DHT22;53049;43.446;3.698;2023-08-21T15:01:09;32.60;99.90
66257;DHT22;53049;43.446;3.698;2023-08-21T15:03:38;32.60;99.90
66257;DHT22;53049;43.446;3.698;2023-08-21T15:06:04;32.60;99.90
66257;DHT22;53049;43.446;3.698;2023-08-21T15:08:29;32.60;99.90
66257;DHT22;53049;43.446;3.698;2023-08-21T15:10:55;32.70;99.90
66257;DHT22;53049;43.446;3.698;2023-08-21T15:13:21;32.70;99.90
66257;DHT22;53049;43.446;3.698;2023-08-21T15:15:47;32.60;99.90
66257;DHT22;53049;43.446;3.698;2023-08-21T15:18:12;32.60;99.90
66257;DHT22;53049;43.446;3.698;2023-08-21T15:20:38;32.60;99.90
66257;DHT22;53049;43.446;3.698;2023-08-21T15:23:04;32.60;99.90
66257;DHT22;53049;43.446;3.698;2023-08-21T15:25:29;32.60;99.90
66257;DHT22;53049;43.446;3.698;2023-08-21T15:27:55;32.50;99.90
66257;DHT22;53049;43.446;3.698;2023-08-21T15:30:21;32.50;99.90
66257;DHT22;53049;43.446;3.698;2023-08-21T15:32:46;32.40;99.90
66257;DHT22;53049;43.446;3.698;2023-08-21T15:35:14;32.40;99.90
66257;DHT22;53049;43.446;3.698;2023-08-21T15:37:40;32.40;99.90
66257;DHT22;53049;43.446;3.698;2023-08-21T15:40:07;32.40;99.90
66257;DHT22;53049;43.446;3.698;2023-08-21T15:42:32;32.30;99.90